createdAt,value
2018-10-09T00:00:45.912Z,933.54
2018-10-09T00:01:45.892Z,933.56
2018-10-09T00:02:45.801Z,933.62
2018-10-09T00:03:45.808Z,933.62
2018-10-09T00:04:45.836Z,933.63
2018-10-09T00:05:45.848Z,933.66
2018-10-09T00:06:46.100Z,933.66
2018-10-09T00:07:45.876Z,933.68
2018-10-09T00:08:45.875Z,933.67
2018-10-09T00:09:45.905Z,933.68
2018-10-09T00:10:45.920Z,933.68
2018-10-09T00:11:46.082Z,933.70
2018-10-09T00:12:45.953Z,933.73
2018-10-09T00:13:45.959Z,933.75
2018-10-09T00:14:45.981Z,933.75
2018-10-09T00:15:46.003Z,933.72
2018-10-09T00:16:46.103Z,933.73
2018-10-09T00:17:46.027Z,933.74
2018-10-09T00:18:46.079Z,933.71
2018-10-09T00:19:46.039Z,933.74
2018-10-09T00:20:46.071Z,933.78
2018-10-09T00:21:46.181Z,933.77
2018-10-09T00:22:46.080Z,933.72
2018-10-09T00:23:46.124Z,933.74
2018-10-09T00:24:46.131Z,933.75
2018-10-09T00:25:46.145Z,933.75
2018-10-09T00:26:46.310Z,933.71
2018-10-09T00:27:46.169Z,933.74
2018-10-09T00:28:46.187Z,933.78
2018-10-09T00:29:46.204Z,933.79
2018-10-09T00:30:46.215Z,933.79
2018-10-09T00:31:46.331Z,933.73
2018-10-09T00:32:46.251Z,933.71
2018-10-09T00:33:46.251Z,933.74
2018-10-09T00:34:46.277Z,933.73
2018-10-09T00:35:46.290Z,933.77
2018-10-09T00:36:46.398Z,933.77
2018-10-09T00:37:46.317Z,933.75
2018-10-09T00:38:46.335Z,933.70
2018-10-09T00:39:46.351Z,933.69
2018-10-09T00:40:46.369Z,933.69
2018-10-09T00:41:46.487Z,933.66
2018-10-09T00:42:46.391Z,933.69
2018-10-09T00:43:46.412Z,933.70
2018-10-09T00:44:46.407Z,933.70
2018-10-09T00:45:46.422Z,933.71
2018-10-09T00:46:46.702Z,933.72
2018-10-09T00:47:46.476Z,933.69
2018-10-09T00:48:46.470Z,933.65
2018-10-09T00:49:46.504Z,933.71
2018-10-09T00:50:46.521Z,933.72
2018-10-09T00:51:46.533Z,933.71
2018-10-09T00:52:46.797Z,933.72
2018-10-09T00:53:46.561Z,933.72
2018-10-09T00:54:46.559Z,933.77
2018-10-09T00:55:46.573Z,933.73
2018-10-09T00:56:46.602Z,933.74
2018-10-09T00:57:46.619Z,933.72
2018-10-09T00:58:46.730Z,933.71
2018-10-09T00:59:46.629Z,933.74
2018-10-09T01:00:46.659Z,933.74
2018-10-09T01:01:46.674Z,933.75
2018-10-09T01:02:46.686Z,933.75
2018-10-09T01:03:46.841Z,933.74
2018-10-09T01:04:46.719Z,933.69
2018-10-09T01:05:46.724Z,933.68
2018-10-09T01:06:46.751Z,933.67
2018-10-09T01:07:46.757Z,933.66
2018-10-09T01:08:46.865Z,933.65
2018-10-09T01:09:46.783Z,933.65
2018-10-09T01:10:46.805Z,933.64
2018-10-09T01:11:46.814Z,933.65
2018-10-09T01:12:46.841Z,933.66
2018-10-09T01:13:47.092Z,933.64
2018-10-09T01:14:46.869Z,933.67
2018-10-09T01:15:46.897Z,933.68
2018-10-09T01:16:46.900Z,933.67
2018-10-09T01:17:46.913Z,933.74
2018-10-09T01:18:47.170Z,933.72
2018-10-09T01:19:46.923Z,933.73
2018-10-09T01:20:46.976Z,933.68
2018-10-09T01:21:46.967Z,933.72
2018-10-09T01:22:46.976Z,933.71
2018-10-09T01:23:47.091Z,933.74
2018-10-09T01:24:47.011Z,933.71
2018-10-09T01:25:47.037Z,933.72
2018-10-09T01:26:47.057Z,933.73
2018-10-09T01:27:47.065Z,933.69
2018-10-09T01:28:47.181Z,933.67
2018-10-09T01:29:47.092Z,933.68
2018-10-09T01:30:47.103Z,933.68
2018-10-09T01:31:47.115Z,933.64
2018-10-09T01:32:47.136Z,933.63
2018-10-09T01:33:47.303Z,933.67
2018-10-09T01:34:47.147Z,933.65
2018-10-09T01:35:47.179Z,933.71
2018-10-09T01:36:47.194Z,933.69
2018-10-09T01:37:47.212Z,933.73
2018-10-09T01:38:47.306Z,933.70
2018-10-09T01:39:47.239Z,933.76
2018-10-09T01:40:47.252Z,933.75
2018-10-09T01:41:47.256Z,933.80
2018-10-09T01:42:47.280Z,933.79
2018-10-09T01:43:47.399Z,933.79
2018-10-09T01:44:47.309Z,933.79
2018-10-09T01:45:47.313Z,933.83
2018-10-09T01:46:47.336Z,933.83
2018-10-09T01:47:47.355Z,933.85
2018-10-09T01:48:47.562Z,933.84
2018-10-09T01:49:47.387Z,933.81
2018-10-09T01:50:47.397Z,933.81
2018-10-09T01:51:47.418Z,933.78
2018-10-09T01:52:47.419Z,933.83
2018-10-09T01:53:47.532Z,933.79
2018-10-09T01:54:47.441Z,933.76
2018-10-09T01:55:47.472Z,933.78
2018-10-09T01:56:47.478Z,933.81
2018-10-09T01:57:47.498Z,933.76
2018-10-09T01:58:47.614Z,933.73
2018-10-09T01:59:47.526Z,933.76
2018-10-09T02:00:47.546Z,933.75
2018-10-09T02:01:47.566Z,933.78
2018-10-09T02:02:47.566Z,933.82
2018-10-09T02:03:47.741Z,933.81
2018-10-09T02:04:47.589Z,933.85
2018-10-09T02:05:47.610Z,933.83
2018-10-09T02:06:47.638Z,933.83
2018-10-09T02:07:47.650Z,933.90
2018-10-09T02:08:47.655Z,933.94
2018-10-09T02:09:47.783Z,933.89
2018-10-09T02:10:47.695Z,933.92
2018-10-09T02:11:47.692Z,933.94
2018-10-09T02:12:47.730Z,933.94
2018-10-09T02:13:47.733Z,933.95
2018-10-09T02:14:48.008Z,933.92
2018-10-09T02:15:47.769Z,933.91
2018-10-09T02:16:47.784Z,933.88
2018-10-09T02:17:47.799Z,933.90
2018-10-09T02:18:47.815Z,933.88
2018-10-09T02:19:47.925Z,933.89
2018-10-09T02:20:47.841Z,933.93
2018-10-09T02:21:47.857Z,933.91
2018-10-09T02:22:47.870Z,933.91
2018-10-09T02:23:47.880Z,933.95
2018-10-09T02:24:47.997Z,933.92
2018-10-09T02:25:47.924Z,933.89
2018-10-09T02:26:47.923Z,933.85
2018-10-09T02:27:47.947Z,933.86
2018-10-09T02:28:47.956Z,933.88
2018-10-09T02:29:48.081Z,933.87
2018-10-09T02:30:47.990Z,933.91
2018-10-09T02:31:48.005Z,933.92
2018-10-09T02:32:48.014Z,933.90
2018-10-09T02:33:48.055Z,933.90
2018-10-09T02:34:48.150Z,933.87
2018-10-09T02:35:48.067Z,933.91
2018-10-09T02:36:48.089Z,933.86
2018-10-09T02:37:48.082Z,933.77
2018-10-09T02:38:48.106Z,933.73
2018-10-09T02:39:48.207Z,933.67
2018-10-09T02:40:48.122Z,933.57
2018-10-09T02:41:48.154Z,933.63
2018-10-09T02:42:48.172Z,933.62
2018-10-09T02:43:48.177Z,933.67
2018-10-09T02:44:48.298Z,933.65
2018-10-09T02:45:48.208Z,933.60
2018-10-09T02:46:48.223Z,933.64
2018-10-09T02:47:48.236Z,933.59
2018-10-09T02:48:48.250Z,933.58
2018-10-09T02:49:48.361Z,933.55
2018-10-09T02:50:48.284Z,933.55
2018-10-09T02:51:48.301Z,933.53
2018-10-09T02:52:48.294Z,933.52
2018-10-09T02:53:48.312Z,933.53
2018-10-09T02:54:48.441Z,933.56
2018-10-09T02:55:48.357Z,933.50
2018-10-09T02:56:48.378Z,933.49
2018-10-09T02:57:48.385Z,933.48
2018-10-09T02:58:48.397Z,933.47
2018-10-09T02:59:48.513Z,933.45
2018-10-09T03:00:48.410Z,933.42
2018-10-09T03:01:48.446Z,933.41
2018-10-09T03:02:48.447Z,933.42
2018-10-09T03:03:48.479Z,933.35
2018-10-09T03:04:48.585Z,933.28
2018-10-09T03:05:48.502Z,933.28
2018-10-09T03:06:48.512Z,933.22
2018-10-09T03:07:48.528Z,933.20
2018-10-09T03:08:48.547Z,933.18
2018-10-09T03:09:48.665Z,933.20
2018-10-09T03:10:48.575Z,933.13
2018-10-09T03:11:48.587Z,933.11
2018-10-09T03:12:48.597Z,933.11
2018-10-09T03:13:48.613Z,933.09
2018-10-09T03:14:48.619Z,933.12
2018-10-09T03:15:48.898Z,933.12
2018-10-09T03:16:48.646Z,933.13
2018-10-09T03:17:48.677Z,933.12
2018-10-09T03:18:48.689Z,933.10
2018-10-09T03:19:48.705Z,933.13
2018-10-09T03:20:48.939Z,933.09
2018-10-09T03:21:48.735Z,933.06
2018-10-09T03:22:48.742Z,933.05
2018-10-09T03:23:48.766Z,933.01
2018-10-09T03:24:48.761Z,932.94
2018-10-09T03:25:48.927Z,932.91
2018-10-09T03:26:48.807Z,932.88
2018-10-09T03:27:48.814Z,932.79
2018-10-09T03:28:48.825Z,932.78
2018-10-09T03:29:48.844Z,932.77
2018-10-09T03:30:48.945Z,932.74
2018-10-09T03:31:48.876Z,932.68
2018-10-09T03:32:48.897Z,932.65
2018-10-09T03:33:48.911Z,932.65
2018-10-09T03:34:48.927Z,932.59
2018-10-09T03:35:49.081Z,932.54
2018-10-09T03:36:48.947Z,932.52
2018-10-09T03:37:48.963Z,932.53
2018-10-09T03:38:48.967Z,932.51
2018-10-09T03:39:48.993Z,932.53
2018-10-09T03:40:49.161Z,932.44
2018-10-09T03:41:49.021Z,932.38
2018-10-09T03:42:49.024Z,932.38
2018-10-09T03:43:49.050Z,932.30
2018-10-09T03:44:49.053Z,932.28
2018-10-09T03:45:49.235Z,932.31
2018-10-09T03:46:49.077Z,932.27
2018-10-09T03:47:49.109Z,932.26
2018-10-09T03:48:49.112Z,932.26
2018-10-09T03:49:49.143Z,932.28
2018-10-09T03:50:49.405Z,932.29
2018-10-09T03:51:49.155Z,932.33
2018-10-09T03:52:49.183Z,932.38
2018-10-09T03:53:49.396Z,932.34
2018-10-09T03:54:49.207Z,932.36
2018-10-09T03:55:49.320Z,932.33
2018-10-09T03:56:49.228Z,932.39
2018-10-09T03:57:49.252Z,932.42
2018-10-09T03:58:49.261Z,932.39
2018-10-09T03:59:49.280Z,932.45
2018-10-09T04:00:49.397Z,932.45
2018-10-09T04:01:49.312Z,932.43
2018-10-09T04:02:49.325Z,932.43
2018-10-09T04:03:49.337Z,932.45
2018-10-09T04:04:49.351Z,932.50
2018-10-09T04:05:49.469Z,932.46
2018-10-09T04:06:49.377Z,932.48
2018-10-09T04:07:49.393Z,932.50
2018-10-09T04:08:49.412Z,932.47
2018-10-09T04:09:49.422Z,932.48
2018-10-09T04:10:49.588Z,932.49
2018-10-09T04:11:49.459Z,932.48
2018-10-09T04:12:49.499Z,932.50
2018-10-09T04:13:49.466Z,932.51
2018-10-09T04:14:49.497Z,932.47
2018-10-09T04:15:49.671Z,932.52
2018-10-09T04:16:49.526Z,932.55
2018-10-09T04:17:49.542Z,932.57
2018-10-09T04:18:49.557Z,932.56
2018-10-09T04:19:49.573Z,932.54
2018-10-09T04:20:49.589Z,932.52
2018-10-09T04:21:49.748Z,932.48
2018-10-09T04:22:49.610Z,932.42
2018-10-09T04:23:49.626Z,932.45
2018-10-09T04:24:49.647Z,932.44
2018-10-09T04:25:49.655Z,932.42
2018-10-09T04:26:49.769Z,932.39
2018-10-09T04:27:49.689Z,932.45
2018-10-09T04:28:49.702Z,932.41
2018-10-09T04:29:49.700Z,932.38
2018-10-09T04:30:49.713Z,932.39
2018-10-09T04:31:49.849Z,932.43
2018-10-09T04:32:49.748Z,932.43
2018-10-09T04:33:49.772Z,932.45
2018-10-09T04:34:49.790Z,932.50
2018-10-09T04:35:49.796Z,932.58
2018-10-09T04:36:50.070Z,932.72
2018-10-09T04:37:49.846Z,932.83
2018-10-09T04:38:49.836Z,932.99
2018-10-09T04:39:49.872Z,933.07
2018-10-09T04:40:49.883Z,933.00
2018-10-09T04:41:49.994Z,932.85
2018-10-09T04:42:49.911Z,932.71
2018-10-09T04:43:50.734Z,932.67
2018-10-09T04:44:49.939Z,932.59
2018-10-09T04:45:49.956Z,932.53
2018-10-09T04:46:50.069Z,932.52
2018-10-09T04:47:49.984Z,932.50
2018-10-09T04:48:50.041Z,932.48
2018-10-09T04:49:50.019Z,932.52
2018-10-09T04:50:50.029Z,932.53
2018-10-09T04:51:50.137Z,932.56
2018-10-09T04:52:50.050Z,932.56
2018-10-09T04:53:50.067Z,932.54
2018-10-09T04:54:50.069Z,932.56
2018-10-09T04:55:50.103Z,932.56
2018-10-09T04:56:50.366Z,932.52
2018-10-09T04:57:50.123Z,932.52
2018-10-09T04:58:50.146Z,932.50
2018-10-09T04:59:50.159Z,932.47
2018-10-09T05:00:50.251Z,932.48
2018-10-09T05:01:50.324Z,932.45
2018-10-09T05:02:50.203Z,932.41
2018-10-09T05:03:50.211Z,932.37
2018-10-09T05:04:50.227Z,932.28
2018-10-09T05:05:50.243Z,932.26
2018-10-09T05:06:50.546Z,932.25
2018-10-09T05:07:50.268Z,932.24
2018-10-09T05:08:50.278Z,932.23
2018-10-09T05:09:50.287Z,932.17
2018-10-09T05:10:50.300Z,932.17
2018-10-09T05:11:50.430Z,932.18
2018-10-09T05:12:50.336Z,932.10
2018-10-09T05:13:50.357Z,932.12
2018-10-09T05:14:50.373Z,932.12
2018-10-09T05:15:50.389Z,932.07
2018-10-09T05:16:50.640Z,932.05
2018-10-09T05:17:50.501Z,932.01
2018-10-09T05:18:50.428Z,931.91
2018-10-09T05:19:50.445Z,931.88
2018-10-09T05:20:50.461Z,931.84
2018-10-09T05:21:50.477Z,931.81
2018-10-09T05:22:50.589Z,931.82
2018-10-09T05:23:50.492Z,931.79
2018-10-09T05:24:50.512Z,931.79
2018-10-09T05:25:50.529Z,931.77
2018-10-09T05:26:50.533Z,931.77
2018-10-09T05:27:50.659Z,931.76
2018-10-09T05:28:50.574Z,931.71
2018-10-09T05:29:50.583Z,931.70
2018-10-09T05:30:50.602Z,931.68
2018-10-09T05:31:50.617Z,931.69
2018-10-09T05:32:50.629Z,931.69
2018-10-09T05:33:50.788Z,931.66
2018-10-09T05:34:50.661Z,931.64
2018-10-09T05:35:50.673Z,931.63
2018-10-09T05:36:50.700Z,931.57
2018-10-09T05:37:50.765Z,931.58
2018-10-09T05:38:50.815Z,931.53
2018-10-09T05:39:50.731Z,931.53
2018-10-09T05:40:50.729Z,931.53
2018-10-09T05:41:50.759Z,931.51
2018-10-09T05:42:50.772Z,931.47
2018-10-09T05:43:50.921Z,931.44
2018-10-09T05:44:50.801Z,931.46
2018-10-09T05:45:50.815Z,931.44
2018-10-09T05:46:50.825Z,931.38
2018-10-09T05:47:50.844Z,931.40
2018-10-09T05:48:50.963Z,931.37
2018-10-09T05:49:50.855Z,931.40
2018-10-09T05:50:50.890Z,931.39
2018-10-09T05:51:50.885Z,931.34
2018-10-09T05:52:50.920Z,931.36
2018-10-09T05:53:51.018Z,931.31
2018-10-09T05:54:50.946Z,931.25
2018-10-09T05:55:50.953Z,931.26
2018-10-09T05:56:50.970Z,931.26
2018-10-09T05:57:51.001Z,931.21
2018-10-09T05:58:51.150Z,931.20
2018-10-09T05:59:51.016Z,931.23
2018-10-09T06:00:51.019Z,931.18
2018-10-09T06:01:51.032Z,931.18
2018-10-09T06:02:51.059Z,931.23
2018-10-09T06:03:51.216Z,931.22
2018-10-09T06:04:51.086Z,931.22
2018-10-09T06:05:51.123Z,931.15
2018-10-09T06:06:51.100Z,931.15
2018-10-09T06:07:51.136Z,931.13
2018-10-09T06:08:51.243Z,931.10
2018-10-09T06:09:51.170Z,931.11
2018-10-09T06:10:51.169Z,931.09
2018-10-09T06:11:51.186Z,931.09
2018-10-09T06:12:51.197Z,931.10
2018-10-09T06:13:51.351Z,931.14
2018-10-09T06:14:51.216Z,931.07
2018-10-09T06:15:51.277Z,931.11
2018-10-09T06:16:51.259Z,931.07
2018-10-09T06:17:51.290Z,931.06
2018-10-09T06:18:51.382Z,931.07
2018-10-09T06:19:51.304Z,931.00
2018-10-09T06:20:51.318Z,931.03
2018-10-09T06:21:51.330Z,931.04
2018-10-09T06:22:51.344Z,931.00
2018-10-09T06:23:51.460Z,931.00
2018-10-09T06:24:51.358Z,930.99
2018-10-09T06:25:51.370Z,930.97
2018-10-09T06:26:51.399Z,930.96
2018-10-09T06:27:51.457Z,930.97
2018-10-09T06:28:51.579Z,930.99
2018-10-09T06:29:51.445Z,931.03
2018-10-09T06:30:51.456Z,930.97
2018-10-09T06:31:51.457Z,930.98
2018-10-09T06:32:51.468Z,930.95
2018-10-09T06:33:51.652Z,930.97
2018-10-09T06:34:51.499Z,930.90
2018-10-09T06:35:51.526Z,930.96
2018-10-09T06:36:51.541Z,930.94
2018-10-09T06:37:51.548Z,930.96
2018-10-09T06:38:51.559Z,930.97
2018-10-09T06:39:51.688Z,930.92
2018-10-09T06:40:51.604Z,930.93
2018-10-09T06:41:51.616Z,930.95
2018-10-09T06:42:51.800Z,930.99
2018-10-09T06:43:51.644Z,930.96
2018-10-09T06:44:51.757Z,931.00
2018-10-09T06:45:51.669Z,930.97
2018-10-09T06:46:51.686Z,930.99
2018-10-09T06:47:51.697Z,931.05
2018-10-09T06:48:51.716Z,931.03
2018-10-09T06:49:51.981Z,931.04
2018-10-09T06:50:51.735Z,931.10
2018-10-09T06:51:51.757Z,931.09
2018-10-09T06:52:51.777Z,931.08
2018-10-09T06:53:52.044Z,931.10
2018-10-09T06:54:51.996Z,931.12
2018-10-09T06:55:51.816Z,931.12
2018-10-09T06:56:51.831Z,931.08
2018-10-09T06:57:51.830Z,931.08
2018-10-09T06:58:51.855Z,931.09
2018-10-09T06:59:52.024Z,931.09
2018-10-09T07:00:51.890Z,931.07
2018-10-09T07:01:51.929Z,931.07
2018-10-09T07:02:51.920Z,931.07
2018-10-09T07:03:51.932Z,931.07
2018-10-09T07:04:52.044Z,931.04
2018-10-09T07:05:51.957Z,931.07
2018-10-09T07:06:51.973Z,931.10
2018-10-09T07:07:51.972Z,931.12
2018-10-09T07:08:52.010Z,931.17
2018-10-09T07:09:52.165Z,931.19
2018-10-09T07:10:52.026Z,931.20
2018-10-09T07:11:52.041Z,931.26
2018-10-09T07:12:52.061Z,931.29
2018-10-09T07:13:52.076Z,931.36
2018-10-09T07:14:52.193Z,931.47
2018-10-09T07:15:52.101Z,931.57
2018-10-09T07:16:52.130Z,931.70
2018-10-09T07:17:52.133Z,931.75
2018-10-09T07:18:52.150Z,931.71
2018-10-09T07:19:52.392Z,931.65
2018-10-09T07:20:52.181Z,931.67
2018-10-09T07:21:52.193Z,931.64
2018-10-09T07:22:52.214Z,931.66
2018-10-09T07:23:52.221Z,931.71
2018-10-09T07:24:55.577Z,931.71
2018-10-09T07:25:52.249Z,931.71
2018-10-09T07:26:52.259Z,931.66
2018-10-09T07:27:52.358Z,931.63
2018-10-09T07:28:52.292Z,931.58
2018-10-09T07:29:52.311Z,931.56
2018-10-09T07:30:52.453Z,931.57
2018-10-09T07:31:52.333Z,931.57
2018-10-09T07:32:52.337Z,931.57
